createdAt,value
2018-07-24T00:01:22.986Z,99.90
2018-07-24T00:03:50.264Z,99.90
2018-07-24T00:06:17.616Z,99.90
2018-07-24T00:08:44.913Z,99.90
2018-07-24T00:11:12.201Z,99.90
2018-07-24T00:13:39.712Z,99.90
2018-07-24T00:16:06.921Z,99.90
2018-07-24T00:18:34.164Z,99.90
2018-07-24T00:23:28.716Z,99.90
2018-07-24T00:25:55.982Z,99.90
2018-07-24T00:28:23.266Z,99.90
2018-07-24T00:30:50.485Z,99.90
2018-07-24T00:33:17.876Z,99.90
2018-07-24T00:35:45.156Z,99.90
2018-07-24T00:38:12.357Z,99.90
2018-07-24T00:40:39.584Z,99.90
2018-07-24T00:43:06.796Z,99.90
2018-07-24T00:45:34.053Z,99.90
2018-07-24T00:48:01.389Z,99.90
2018-07-24T00:50:28.656Z,99.90
2018-07-24T00:52:55.916Z,99.90
2018-07-24T00:55:23.286Z,99.90
2018-07-24T00:57:50.490Z,99.90
2018-07-24T01:00:17.720Z,99.90
2018-07-24T01:02:44.978Z,99.90
2018-07-24T01:05:12.216Z,99.90
2018-07-24T01:07:39.513Z,99.90
2018-07-24T01:10:08.063Z,99.90
2018-07-24T01:12:35.256Z,99.90
2018-07-24T01:15:04.555Z,99.90
2018-07-24T01:17:31.809Z,99.90
2018-07-24T01:19:59.028Z,99.90
2018-07-24T01:22:26.312Z,99.90
2018-07-24T01:24:53.609Z,99.90
2018-07-24T01:29:48.116Z,99.90
2018-07-24T01:32:15.308Z,99.90
2018-07-24T01:34:42.540Z,99.90
2018-07-24T01:37:10.074Z,99.90
2018-07-24T01:39:37.301Z,99.90
2018-07-24T01:44:31.748Z,99.90
2018-07-24T01:46:58.944Z,99.90
2018-07-24T01:49:26.237Z,99.90
2018-07-24T01:51:53.440Z,99.90
2018-07-24T01:54:20.650Z,99.90
2018-07-24T01:56:47.868Z,99.90
2018-07-24T01:59:15.088Z,99.90
2018-07-24T02:01:42.514Z,99.90
2018-07-24T02:27:17.710Z,99.90
2018-07-24T02:29:45.049Z,99.90
2018-07-24T02:32:12.253Z,99.90
2018-07-24T04:08:44.364Z,99.90
2018-07-24T04:13:38.965Z,99.90
2018-07-24T04:16:06.236Z,99.90
2018-07-24T04:20:47.053Z,99.90
2018-07-24T04:23:14.265Z,99.90
2018-07-24T04:25:41.987Z,99.90
2018-07-24T04:28:09.275Z,99.90
2018-07-24T04:33:03.757Z,99.90
2018-07-24T04:35:30.941Z,99.90
2018-07-24T04:37:58.228Z,99.90
2018-07-24T04:42:52.955Z,99.90
2018-07-24T04:45:20.146Z,99.90
2018-07-24T04:50:14.733Z,99.90
2018-07-24T04:52:41.941Z,99.90
2018-07-24T04:57:36.428Z,99.90
2018-07-24T05:00:04.462Z,99.90
2018-07-24T05:02:31.723Z,99.90
2018-07-24T05:04:58.951Z,99.90
2018-07-24T05:07:26.173Z,99.90
2018-07-24T05:09:53.386Z,99.90
2018-07-24T05:12:21.493Z,99.90
2018-07-24T05:14:48.684Z,99.90
2018-07-24T05:17:15.948Z,99.90
2018-07-24T05:19:43.207Z,99.90
2018-07-24T05:22:10.564Z,99.90
2018-07-24T05:24:37.822Z,99.90
2018-07-24T05:27:05.063Z,99.90
2018-07-24T05:29:32.495Z,99.90
2018-07-24T05:31:59.720Z,99.90
2018-07-24T05:34:26.951Z,99.90
2018-07-24T05:36:54.212Z,99.90
2018-07-24T05:39:21.421Z,99.90
2018-07-24T05:41:48.647Z,99.90
2018-07-24T05:44:15.924Z,99.90
2018-07-24T05:46:43.100Z,99.90
2018-07-24T05:49:10.508Z,99.90
2018-07-24T05:51:38.806Z,99.90
2018-07-24T05:54:06.032Z,99.90
2018-07-24T05:59:00.592Z,99.90
2018-07-24T06:01:27.844Z,99.90
2018-07-24T06:03:55.385Z,99.90
2018-07-24T06:06:22.628Z,99.90
2018-07-24T06:08:49.829Z,99.90
2018-07-24T06:13:44.293Z,99.90
2018-07-24T06:16:11.477Z,99.90
2018-07-24T06:18:38.736Z,99.90
2018-07-24T06:21:05.923Z,99.90
2018-07-24T06:23:33.193Z,99.90
2018-07-24T06:26:00.541Z,99.90
2018-07-24T06:28:27.775Z,99.90
2018-07-24T06:30:55.044Z,99.90
2018-07-24T06:33:22.244Z,99.90
2018-07-24T06:35:49.468Z,99.90
2018-07-24T06:38:16.820Z,99.90
2018-07-24T06:40:44.052Z,99.90
2018-07-24T06:43:11.255Z,99.90
2018-07-24T06:45:38.704Z,99.90
2018-07-24T06:48:06.224Z,99.90
2018-07-24T06:50:33.472Z,99.90
2018-07-24T06:53:00.788Z,99.90
2018-07-24T06:55:28.035Z,99.90
2018-07-24T06:57:55.359Z,99.90
2018-07-24T07:00:22.540Z,99.90
2018-07-24T07:02:49.904Z,99.90
2018-07-24T07:05:17.248Z,99.90
2018-07-24T07:07:44.993Z,99.90
2018-07-24T07:10:12.239Z,99.90
2018-07-24T07:12:39.583Z,99.90
2018-07-24T07:15:07.423Z,99.90
2018-07-24T07:17:34.627Z,99.90
2018-07-24T07:20:01.850Z,99.90
2018-07-24T07:22:29.518Z,99.90
2018-07-24T07:24:56.820Z,99.90
2018-07-24T07:27:24.008Z,99.90
2018-07-24T07:29:51.249Z,99.90
2018-07-24T07:32:18.948Z,99.90
2018-07-24T07:34:46.162Z,99.90
2018-07-24T07:37:13.433Z,99.90
2018-07-24T07:39:40.709Z,99.90
2018-07-24T07:42:08.221Z,99.90
2018-07-24T07:44:35.624Z,99.90
2018-07-24T07:47:02.900Z,99.90
2018-07-24T07:49:30.124Z,99.90
2018-07-24T07:51:57.332Z,99.90
2018-07-24T07:54:24.528Z,99.90
2018-07-24T07:56:51.696Z,99.90
2018-07-24T07:59:18.873Z,99.90
2018-07-24T08:01:46.095Z,99.90
2018-07-24T08:04:13.404Z,99.90
2018-07-24T08:06:40.494Z,99.90
2018-07-24T08:09:08.433Z,99.90
2018-07-24T08:11:35.641Z,99.90
2018-07-24T08:14:02.912Z,99.90
2018-07-24T08:16:30.230Z,99.90
2018-07-24T08:18:57.464Z,99.90
2018-07-24T08:21:24.686Z,99.90
2018-07-24T08:23:51.908Z,99.90
2018-07-24T08:26:19.141Z,99.90
2018-07-24T08:28:46.340Z,99.90
2018-07-24T08:33:40.823Z,99.90
2018-07-24T08:36:08.026Z,99.90
2018-07-24T08:38:35.251Z,99.90
2018-07-24T08:41:02.606Z,99.90
2018-07-24T08:43:29.815Z,99.90
2018-07-24T08:45:57.019Z,99.90
2018-07-24T08:48:24.302Z,99.90
2018-07-24T08:50:51.945Z,99.90
2018-07-24T08:53:19.400Z,99.90
2018-07-24T08:55:46.815Z,99.90
2018-07-24T08:58:14.152Z,99.90
2018-07-24T09:00:41.364Z,99.90
2018-07-24T09:03:08.620Z,99.90
2018-07-24T09:05:35.833Z,99.90
2018-07-24T09:10:30.258Z,99.90
2018-07-24T09:12:57.580Z,99.90
2018-07-24T09:15:24.795Z,99.90
2018-07-24T09:17:51.992Z,99.90
2018-07-24T09:20:19.273Z,99.90
2018-07-24T09:22:46.616Z,99.90
2018-07-24T09:25:14.769Z,99.90
2018-07-24T09:27:41.999Z,99.90
2018-07-24T09:30:09.328Z,99.90
2018-07-24T09:32:37.144Z,99.90
2018-07-24T09:35:04.367Z,99.90
2018-07-24T09:37:31.570Z,99.90
2018-07-24T09:39:58.752Z,99.90
2018-07-24T09:42:25.967Z,99.90
2018-07-24T09:44:53.136Z,99.90
2018-07-24T09:47:20.492Z,99.90
2018-07-24T09:49:47.711Z,99.90
2018-07-24T09:52:14.904Z,99.90
2018-07-24T09:54:42.106Z,99.90
2018-07-24T09:57:09.323Z,99.90
2018-07-24T09:59:36.506Z,99.90
2018-07-24T10:02:03.764Z,99.90
2018-07-24T10:04:30.946Z,99.90
2018-07-24T10:06:58.175Z,99.90
2018-07-24T10:11:52.813Z,99.90
2018-07-24T10:14:20.324Z,99.90
2018-07-24T10:16:47.530Z,99.90
2018-07-24T10:19:14.916Z,99.90
2018-07-24T10:21:42.121Z,99.90
2018-07-24T10:24:09.320Z,99.90
2018-07-24T10:26:36.556Z,99.90
2018-07-24T10:29:03.902Z,99.90
2018-07-24T10:31:31.049Z,99.90
2018-07-24T10:33:58.259Z,99.90
2018-07-24T10:36:25.451Z,99.90
2018-07-24T10:38:52.631Z,99.90
2018-07-24T10:41:19.850Z,99.90
2018-07-24T10:43:47.052Z,99.90
2018-07-24T10:46:14.350Z,99.90
2018-07-24T10:48:41.557Z,99.90
2018-07-24T10:51:09.048Z,99.90
2018-07-24T10:53:36.235Z,99.90
2018-07-24T10:56:03.550Z,99.90
2018-07-24T10:58:30.804Z,99.90
2018-07-24T11:00:57.993Z,99.90
2018-07-24T11:03:25.244Z,99.90
2018-07-24T11:05:52.457Z,99.90
2018-07-24T11:08:19.651Z,99.90
2018-07-24T11:10:46.849Z,99.90
2018-07-24T11:13:14.102Z,99.90
2018-07-24T11:15:41.376Z,99.90
2018-07-24T11:18:08.661Z,99.90
2018-07-24T11:20:35.438Z,99.90
2018-07-24T11:25:35.963Z,99.90
2018-07-24T11:28:02.656Z,99.00
2018-07-24T11:30:29.428Z,97.60
2018-07-24T11:32:56.148Z,96.10
2018-07-24T11:35:22.888Z,95.80
2018-07-24T11:37:49.623Z,92.80
2018-07-24T11:40:16.376Z,91.70
2018-07-24T11:42:43.231Z,91.20
2018-07-24T11:45:09.996Z,90.50
2018-07-24T11:47:36.710Z,90.80
2018-07-24T11:50:03.770Z,85.20
2018-07-24T11:52:30.473Z,81.40
2018-07-24T11:54:57.515Z,80.20
2018-07-24T11:57:24.191Z,78.70
2018-07-24T11:59:50.943Z,75.30
2018-07-24T12:02:18.012Z,74.30
2018-07-24T12:04:44.751Z,71.50
2018-07-24T12:07:11.391Z,69.30
2018-07-24T12:09:38.161Z,69.50
2018-07-24T12:12:04.856Z,67.50
2018-07-24T12:14:31.593Z,66.40
2018-07-24T12:16:58.389Z,65.20
2018-07-24T12:19:25.165Z,64.50
2018-07-24T12:21:51.862Z,62.70
2018-07-24T12:24:18.559Z,62.10
2018-07-24T12:26:45.773Z,62.40
2018-07-24T12:29:13.254Z,62.50
2018-07-24T12:31:40.785Z,64.10
2018-07-24T12:34:08.119Z,61.80
2018-07-24T12:36:35.332Z,60.60
2018-07-24T12:39:03.230Z,60.10
2018-07-24T12:41:29.941Z,60.70
2018-07-24T12:43:56.688Z,58.70
2018-07-24T12:46:23.419Z,58.60
2018-07-24T12:48:50.129Z,56.60
2018-07-24T12:51:16.897Z,55.00
2018-07-24T12:53:43.605Z,54.00
2018-07-24T12:56:10.308Z,52.80
2018-07-24T12:58:36.990Z,52.30
2018-07-24T13:01:03.895Z,51.30
2018-07-24T13:03:30.592Z,51.00
2018-07-24T13:05:57.282Z,50.50
2018-07-24T13:08:24.023Z,49.20
2018-07-24T13:10:51.370Z,46.90
2018-07-24T13:13:18.650Z,47.70
2018-07-24T13:15:45.836Z,46.00
2018-07-24T13:18:13.116Z,46.80
2018-07-24T13:20:40.581Z,46.30
2018-07-24T13:23:07.788Z,46.80
2018-07-24T13:25:35.013Z,46.30
2018-07-24T13:28:02.366Z,45.10
2018-07-24T13:30:29.574Z,43.50
2018-07-24T13:32:56.804Z,44.10
2018-07-24T13:35:23.975Z,42.80
2018-07-24T13:37:51.197Z,44.70
2018-07-24T13:40:18.601Z,43.80
2018-07-24T13:42:45.808Z,42.90
2018-07-24T13:45:12.997Z,41.30
2018-07-24T13:47:40.282Z,40.70
2018-07-24T13:50:07.475Z,43.20
2018-07-24T13:55:01.853Z,44.20
2018-07-24T13:57:29.151Z,44.60
2018-07-24T13:59:56.400Z,45.20
2018-07-24T14:02:23.612Z,45.00
2018-07-24T14:04:50.800Z,43.90
2018-07-24T14:07:18.008Z,43.60
2018-07-24T14:09:45.287Z,42.90
2018-07-24T14:12:12.548Z,42.90
2018-07-24T14:14:39.760Z,42.40
2018-07-24T14:17:07.116Z,42.10
2018-07-24T14:19:34.300Z,42.50
2018-07-24T14:22:01.516Z,43.20
2018-07-24T14:24:28.725Z,43.50
2018-07-24T14:26:56.111Z,43.10
2018-07-24T14:29:23.321Z,42.20
2018-07-24T14:34:17.877Z,41.20
2018-07-24T14:36:45.152Z,39.90
2018-07-24T14:39:13.159Z,41.20
2018-07-24T14:41:40.403Z,40.00
2018-07-24T14:44:07.620Z,40.60
2018-07-24T14:46:35.391Z,40.30
2018-07-24T14:49:02.668Z,39.90
2018-07-24T14:51:29.885Z,39.70
2018-07-24T14:53:57.140Z,39.60
2018-07-24T14:56:24.370Z,39.80
2018-07-24T14:58:51.823Z,40.90
2018-07-24T15:01:19.312Z,40.80
2018-07-24T15:03:46.535Z,41.10
2018-07-24T15:06:13.800Z,40.50
2018-07-24T15:08:41.026Z,39.60
2018-07-24T15:11:08.632Z,39.90
2018-07-24T15:13:35.934Z,38.80
2018-07-24T15:16:03.184Z,39.20
2018-07-24T15:18:30.413Z,39.00
2018-07-24T15:20:57.678Z,39.00
2018-07-24T15:23:25.116Z,39.40
2018-07-24T15:25:52.323Z,38.70
2018-07-24T15:28:19.524Z,38.50
2018-07-24T15:30:46.705Z,38.00
2018-07-24T15:33:13.928Z,39.80
2018-07-24T15:35:41.277Z,40.60
2018-07-24T15:38:08.476Z,40.70
2018-07-24T15:40:35.694Z,40.10
2018-07-24T15:43:02.949Z,40.60
2018-07-24T15:45:30.252Z,40.40
2018-07-24T15:47:57.903Z,40.70
2018-07-24T15:50:24.669Z,39.30
2018-07-24T15:52:51.355Z,38.60
2018-07-24T15:55:18.566Z,37.20
2018-07-24T15:57:45.830Z,36.60
2018-07-24T16:00:13.068Z,36.90
2018-07-24T16:02:40.399Z,38.30
2018-07-24T16:05:07.868Z,37.70
2018-07-24T16:07:35.139Z,36.10
2018-07-24T16:10:03.465Z,35.60
2018-07-24T16:12:30.716Z,36.90
2018-07-24T16:14:57.920Z,39.00
2018-07-24T16:17:25.442Z,39.90
2018-07-24T16:19:52.702Z,40.10
2018-07-24T16:22:19.905Z,39.80
2018-07-24T16:24:47.152Z,40.20
2018-07-24T16:27:13.918Z,40.40
2018-07-24T16:29:40.664Z,40.70
2018-07-24T16:32:07.476Z,41.30
2018-07-24T16:34:34.204Z,40.50
2018-07-24T16:37:01.093Z,40.40
2018-07-24T16:39:28.067Z,40.80
2018-07-24T16:41:54.916Z,39.00
2018-07-24T16:44:22.090Z,37.20
2018-07-24T16:46:49.320Z,37.20
2018-07-24T16:49:16.553Z,37.00
2018-07-24T16:51:43.466Z,38.40
2018-07-24T16:54:10.247Z,38.80
2018-07-24T16:56:37.016Z,39.00
2018-07-24T16:59:03.823Z,38.40
2018-07-24T17:01:31.082Z,38.60
2018-07-24T17:03:57.764Z,37.30
2018-07-24T17:06:24.485Z,36.40
2018-07-24T17:08:51.228Z,36.30
2018-07-24T17:11:18.328Z,37.10
2018-07-24T17:13:45.189Z,36.90
2018-07-24T17:18:45.368Z,36.60
2018-07-24T17:21:12.672Z,38.50
2018-07-24T17:23:39.945Z,40.70
2018-07-24T17:26:07.503Z,41.90
2018-07-24T17:28:34.756Z,42.50
2018-07-24T17:31:02.034Z,42.10
2018-07-24T17:33:31.162Z,42.20
2018-07-24T17:35:58.544Z,43.80
2018-07-24T17:38:25.292Z,45.20
2018-07-24T17:40:52.066Z,45.30
2018-07-24T17:43:19.377Z,46.80
2018-07-24T17:45:46.629Z,47.50
2018-07-24T17:48:13.871Z,48.30
2018-07-24T17:55:35.721Z,49.20
2018-07-24T17:58:03.057Z,49.40
2018-07-24T18:00:29.905Z,49.70
2018-07-24T18:02:56.683Z,50.10
2018-07-24T18:05:23.407Z,50.50
2018-07-24T18:07:50.466Z,50.90
2018-07-24T18:10:17.690Z,51.40
2018-07-24T18:12:44.878Z,52.10
2018-07-24T18:15:12.132Z,52.40
2018-07-24T18:17:39.428Z,52.60
2018-07-24T18:20:06.676Z,53.10
2018-07-24T18:22:34.944Z,53.30
2018-07-24T18:25:02.333Z,53.40
2018-07-24T18:27:29.552Z,53.40
2018-07-24T18:29:57.081Z,53.80
2018-07-24T18:32:24.770Z,54.10
2018-07-24T18:34:52.096Z,54.20
2018-07-24T18:37:19.447Z,54.00
2018-07-24T18:39:46.688Z,54.50
2018-07-24T18:42:13.997Z,54.40
2018-07-24T18:44:41.271Z,54.70
2018-07-24T18:47:08.548Z,54.80
2018-07-24T18:49:35.950Z,56.40
2018-07-24T18:52:03.192Z,57.20
2018-07-24T18:54:30.408Z,57.50
2018-07-24T18:56:57.628Z,57.90
2018-07-24T18:59:24.802Z,58.50
2018-07-24T19:01:52.025Z,58.90
2018-07-24T19:04:19.226Z,59.80
2018-07-24T19:06:46.455Z,62.10
2018-07-24T19:09:15.063Z,63.80
2018-07-24T19:11:46.085Z,64.70
2018-07-24T19:14:13.374Z,65.80
2018-07-24T19:16:40.527Z,67.10
2018-07-24T19:19:07.934Z,68.00
2018-07-24T19:21:35.229Z,69.10
2018-07-24T19:24:02.592Z,70.00
2018-07-24T19:26:29.801Z,70.90
2018-07-24T19:28:56.988Z,71.50
2018-07-24T19:31:24.256Z,72.80
2018-07-24T19:36:19.060Z,75.00
2018-07-24T19:38:46.299Z,76.20
2018-07-24T19:41:13.668Z,77.30
2018-07-24T19:43:40.980Z,78.70
2018-07-24T19:46:07.660Z,80.00
2018-07-24T19:48:34.671Z,81.20
2018-07-24T19:51:01.386Z,82.40
2018-07-24T19:53:28.679Z,84.70
2018-07-24T19:55:56.052Z,86.70
2018-07-24T19:58:23.200Z,88.30
2018-07-24T20:03:38.864Z,91.50
2018-07-24T20:06:06.093Z,92.60
2018-07-24T20:08:33.361Z,93.80
2018-07-24T20:11:00.598Z,94.90
2018-07-24T20:13:28.177Z,96.40
2018-07-24T20:15:55.368Z,97.90
2018-07-24T20:18:22.725Z,98.70
2018-07-24T20:20:50.024Z,98.70
2018-07-24T20:23:17.454Z,99.30
2018-07-24T20:25:44.565Z,99.90
2018-07-24T20:28:11.792Z,99.90
2018-07-24T20:30:38.989Z,99.90
2018-07-24T20:33:06.192Z,99.90
2018-07-24T20:35:33.509Z,99.90
2018-07-24T20:38:00.741Z,99.90
2018-07-24T20:40:28.017Z,99.90
2018-07-24T20:42:55.230Z,99.90
2018-07-24T20:45:22.784Z,99.90
2018-07-24T20:47:50.048Z,99.90
2018-07-24T20:50:17.305Z,99.90
2018-07-24T20:52:44.512Z,99.90
2018-07-24T20:55:11.816Z,99.90
2018-07-24T20:57:39.072Z,99.90
2018-07-24T21:00:06.304Z,99.90
2018-07-24T21:02:33.564Z,99.90
2018-07-24T21:05:00.860Z,99.90
2018-07-24T21:07:28.094Z,99.90
2018-07-24T21:09:55.400Z,99.90
2018-07-24T21:12:22.601Z,99.90
2018-07-24T21:14:50.118Z,99.90
2018-07-24T21:17:17.649Z,99.90
2018-07-24T21:19:44.827Z,99.90
2018-07-24T21:22:12.010Z,99.90
2018-07-24T21:24:39.233Z,99.90
2018-07-24T21:27:06.480Z,99.90
2018-07-24T21:29:33.751Z,99.90
2018-07-24T21:32:00.936Z,99.90
2018-07-24T21:34:28.152Z,99.90
2018-07-24T21:36:55.316Z,99.90
2018-07-24T21:39:22.513Z,99.90
2018-07-24T21:41:49.794Z,99.90
2018-07-24T21:44:17.013Z,99.90
2018-07-24T21:46:44.301Z,99.90
2018-07-24T21:49:11.561Z,99.90
2018-07-24T21:51:38.845Z,99.90
2018-07-24T21:54:06.105Z,99.90
2018-07-24T21:56:33.323Z,99.90
2018-07-24T21:59:00.537Z,99.90
2018-07-24T22:04:15.653Z,99.90
2018-07-24T22:06:43.264Z,99.90
2018-07-24T22:09:10.468Z,99.90
2018-07-24T22:11:37.659Z,99.90
2018-07-24T22:14:05.161Z,99.90
2018-07-24T22:16:32.372Z,99.90
2018-07-24T22:18:59.962Z,99.90
2018-07-24T22:21:27.183Z,99.90
2018-07-24T22:23:54.380Z,99.90
2018-07-24T22:26:21.557Z,99.90
2018-07-24T22:28:48.756Z,99.90
2018-07-24T22:31:15.997Z,99.90
2018-07-24T22:33:43.233Z,99.90
2018-07-24T22:36:10.474Z,99.90
2018-07-24T22:38:37.788Z,99.90
2018-07-24T22:41:04.988Z,99.90
2018-07-24T22:43:32.220Z,99.90
2018-07-24T22:45:59.456Z,99.90
2018-07-24T22:48:26.672Z,99.90
2018-07-24T22:50:53.859Z,99.90
2018-07-24T22:53:21.125Z,99.90
2018-07-24T22:55:48.328Z,99.90
2018-07-24T22:58:15.724Z,99.90
2018-07-24T23:00:42.972Z,99.90
2018-07-24T23:03:10.187Z,99.90
2018-07-24T23:05:37.364Z,99.90
2018-07-24T23:08:04.616Z,99.90
2018-07-24T23:10:32.885Z,99.90
2018-07-24T23:13:01.408Z,99.90
2018-07-24T23:15:28.633Z,99.90
2018-07-24T23:17:55.876Z,99.90
2018-07-24T23:20:23.123Z,99.90
2018-07-24T23:22:50.328Z,99.90
2018-07-24T23:25:17.527Z,99.90
2018-07-24T23:30:12.018Z,99.90
2018-07-24T23:32:39.272Z,99.90
2018-07-24T23:35:06.616Z,99.90
2018-07-24T23:37:33.824Z,99.90
2018-07-24T23:40:00.996Z,99.90
2018-07-24T23:42:28.159Z,99.90
2018-07-24T23:44:55.484Z,99.90
2018-07-24T23:47:22.208Z,99.90
2018-07-24T23:49:48.911Z,99.90
2018-07-24T23:52:16.276Z,99.90
2018-07-24T23:54:43.552Z,99.90
2018-07-24T23:57:10.780Z,99.90
2018-07-24T23:59:38.010Z,99.90
